Wolgastern — CQLH — position and weather

sailwx.info

Track history (hours):
 
Tides and Currents Weather Stations Pressure Air Temp Water Temp Dewpoint Dewpoint Depression Visibility Wind Speed Wind Dir Waves Ship Positions

Wolgastern

Last reported at 2014-Aug-21 19:18 UTC. Time now 2014-Aug-21 20:02 UTC.
Position N 52°32' E 004°14'.

Length 162 m; draft 6.6 m.

Type: Tanker. MMSI: 255804950.

Date/timePositionNaut miles runAvg speedWind from/ knotsBaromVisibWave heightAir tempDewpointWater temp
2014-Aug-21 19:18N 52°32' E 004°14'0 0.0
2014-Aug-21 18:14N 52°32' E 004°14'0 0.0
2014-Aug-21 17:29N 52°32' E 004°14'0 0.0
2014-Aug-21 16:26N 52°32' E 004°14'0 0.0
2014-Aug-21 15:31N 52°32' E 004°14'0 0.0
2014-Aug-21 14:28N 52°32' E 004°14'0 0.0
2014-Aug-21 13:27N 52°32' E 004°14'0 0.0
2014-Aug-21 12:33N 52°32' E 004°14'0 0.0
2014-Aug-21 11:26N 52°32' E 004°14'0 0.0
2014-Aug-21 10:14N 52°32' E 004°14'0 0.0
2014-Aug-21 09:32N 52°32' E 004°14'0 0.0
2014-Aug-21 08:19N 52°32' E 004°14'0 0.1
2014-Aug-21 07:31N 52°32' E 004°14'0 0.0
2014-Aug-21 06:30N 52°32' E 004°14'0 0.0
2014-Aug-21 05:30N 52°32' E 004°14'0 0.0
2014-Aug-21 04:29N 52°32' E 004°14'0 0.0
2014-Aug-21 03:29N 52°32' E 004°14'0 0.0
2014-Aug-21 02:32N 52°32' E 004°14'0 0.0
2014-Aug-21 01:22N 52°32' E 004°14'0 0.0
2014-Aug-21 00:33N 52°32' E 004°14'0 0.0
2014-Aug-20 23:30N 52°32' E 004°14'0 0.0
2014-Aug-20 22:33N 52°32' E 004°14'0 0.0
2014-Aug-20 21:23N 52°32' E 004°14'0 0.0
2014-Aug-20 18:31N 52°32' E 004°14'0 0.0
2014-Aug-20 16:27N 52°32' E 004°14'0 0.0
2014-Aug-20 15:30N 52°32' E 004°14'0 0.0
2014-Aug-20 14:29N 52°32' E 004°14'0 0.1
2014-Aug-20 13:32N 52°32' E 004°14'0 0.1
2014-Aug-20 12:28N 52°32' E 004°14'0 0.0
2014-Aug-20 11:31N 52°32' E 004°14'0 0.0
2014-Aug-20 10:28N 52°32' E 004°14'0 0.0
2014-Aug-20 09:09N 52°32' E 004°14'0 0.0
2014-Aug-20 07:32N 52°32' E 004°14'0 0.0
2014-Aug-20 06:32N 52°32' E 004°14'0 0.0
2014-Aug-20 05:31N 52°32' E 004°14'0 0.0
2014-Aug-20 04:25N 52°32' E 004°14'0 0.0
2014-Aug-20 03:11N 52°32' E 004°14'0 0.0
2014-Aug-20 02:32N 52°32' E 004°14'0 0.0
2014-Aug-20 01:25N 52°32' E 004°14'0 0.0
2014-Aug-20 00:28N 52°32' E 004°14'0 0.0
2014-Aug-19 23:03N 52°32' E 004°14'0 0.0
2014-Aug-19 22:21N 52°32' E 004°14'0 0.0
2014-Aug-19 20:14N 52°32' E 004°14'0 0.0
2014-Aug-19 19:32N 52°32' E 004°14'0 0.0
2014-Aug-19 18:29N 52°32' E 004°14'0 0.0
2014-Aug-19 17:31N 52°32' E 004°14'0 0.0
2014-Aug-19 16:31N 52°32' E 004°14'0 0.0
2014-Aug-19 15:33N 52°32' E 004°14'0 0.0
2014-Aug-19 14:33N 52°32' E 004°14'0 0.0
2014-Aug-19 13:32N 52°32' E 004°14'0 0.0
2014-Aug-19 12:29N 52°32' E 004°14'0 0.0
2014-Aug-19 11:22N 52°32' E 004°14'0 0.0
2014-Aug-19 10:19N 52°32' E 004°14'0 0.0
2014-Aug-19 09:22N 52°32' E 004°14'0 0.0
2014-Aug-19 08:27N 52°32' E 004°14'0 0.0
2014-Aug-19 07:27N 52°32' E 004°14'0 0.0
2014-Aug-19 06:32N 52°32' E 004°14'0 0.0
2014-Aug-19 05:32N 52°32' E 004°14'0 0.0
2014-Aug-19 04:31N 52°32' E 004°14'0 0.0
2014-Aug-19 03:31N 52°32' E 004°14'0 0.0
2014-Aug-19 02:31N 52°32' E 004°14'0 0.0
2014-Aug-19 01:33N 52°32' E 004°14'0 0.1
2014-Aug-19 00:30N 52°32' E 004°14'0 0.0
2014-Aug-18 23:33N 52°32' E 004°14'7 7.2
2014-Aug-18 22:33N 52°29' E 004°25'7 7.1
2014-Aug-18 21:33N 52°28' E 004°37'1 0.8
2014-Aug-18 20:33N 52°28' E 004°38'1 0.8
2014-Aug-18 19:34N 52°28' E 004°39'5 4.7
2014-Aug-18 18:34N 52°26' E 004°46'3 0.3
2014-Aug-18 09:18N 52°25' E 004°50'0 0.0
2014-Aug-18 08:32N 52°25' E 004°50'0 0.0
2014-Aug-18 07:32N 52°25' E 004°50'0 0.0
2014-Aug-18 06:32N 52°25' E 004°50'0 0.0
2014-Aug-18 05:34N 52°25' E 004°50'0 0.0
2014-Aug-18 04:34N 52°25' E 004°50'0 0.0
2014-Aug-18 03:34N 52°25' E 004°50'0 0.0
2014-Aug-18 02:34N 52°25' E 004°50'0 0.0
2014-Aug-18 01:34N 52°25' E 004°50'0 0.0
2014-Aug-18 00:34N 52°25' E 004°50'0 0.0
2014-Aug-17 18:34N 52°25' E 004°50'0 0.0
2014-Aug-17 17:34N 52°25' E 004°50'0 0.0
2014-Aug-17 16:34N 52°25' E 004°50'0 0.0
2014-Aug-17 15:34N 52°25' E 004°50'0 0.0
2014-Aug-17 14:34N 52°25' E 004°50'0 0.0
2014-Aug-17 13:34N 52°25' E 004°50'0 0.0
2014-Aug-17 12:34N 52°25' E 004°50'0 0.0
2014-Aug-17 11:34N 52°25' E 004°50'0 0.0
2014-Aug-17 10:34N 52°25' E 004°50'0 0.0
2014-Aug-17 09:31N 52°25' E 004°50'0 0.0
2014-Aug-17 08:34N 52°25' E 004°50'0 0.0
2014-Aug-17 07:34N 52°25' E 004°50'0 0.0
2014-Aug-17 06:34N 52°25' E 004°50'0 0.0
2014-Aug-17 05:34N 52°25' E 004°50'0 0.0
2014-Aug-17 04:34N 52°25' E 004°50'0 0.0
2014-Aug-17 03:34N 52°25' E 004°50'0 0.0
2014-Aug-17 02:34N 52°25' E 004°50'0 0.0
2014-Aug-17 01:34N 52°25' E 004°50'0 0.0
2014-Aug-17 00:34N 52°25' E 004°50'0 0.0
2014-Aug-16 23:34N 52°25' E 004°50'0 0.0
2014-Aug-16 22:30N 52°25' E 004°50'0 0.0
2014-Aug-16 21:33N 52°25' E 004°50'0 0.0
2014-Aug-16 20:32N 52°25' E 004°50'0 0.0
2014-Aug-16 19:32N 52°25' E 004°50'0 0.0
2014-Aug-16 18:34N 52°25' E 004°50'0 0.0
2014-Aug-16 17:34N 52°25' E 004°50'0 0.0
2014-Aug-16 16:34N 52°25' E 004°50'0 0.0
2014-Aug-16 15:34N 52°25' E 004°50'0 0.0
2014-Aug-16 14:33N 52°25' E 004°50'0 0.0
2014-Aug-16 13:32N 52°25' E 004°50'0 0.0
2014-Aug-16 12:29N 52°25' E 004°50'0 0.0
2014-Aug-16 11:34N 52°25' E 004°50'0 0.0
2014-Aug-16 10:34N 52°25' E 004°50'0 0.0
2014-Aug-16 09:33N 52°25' E 004°50'0 0.0
2014-Aug-16 08:33N 52°25' E 004°50'0 0.0
2014-Aug-16 07:33N 52°25' E 004°50'0 0.0
2014-Aug-16 06:33N 52°25' E 004°50'0 0.0
2014-Aug-16 05:33N 52°25' E 004°50'0 0.0
2014-Aug-16 04:33N 52°25' E 004°50'1 0.6
2014-Aug-16 03:33N 52°25' E 004°50'8 7.6
2014-Aug-16 02:33N 52°28' E 004°38'3 2.7
2014-Aug-16 01:33N 52°28' E 004°34'8 7.5
2014-Aug-16 00:33N 52°29' E 004°21'8 7.6
2014-Aug-15 23:33N 52°29' E 004°09'1 1.0
2014-Aug-15 22:29N 52°28' E 004°07'0 0.0
2014-Aug-15 21:11N 52°28' E 004°07'0 0.0
2014-Aug-15 20:10N 52°28' E 004°07'0 0.1
2014-Aug-15 19:25N 52°28' E 004°07'0 0.1
2014-Aug-15 18:10N 52°28' E 004°07'0 0.0
2014-Aug-15 17:33N 52°28' E 004°07'0 0.2
2014-Aug-15 16:33N 52°28' E 004°07'0 0.0
2014-Aug-15 15:29N 52°28' E 004°07'0 0.0
2014-Aug-15 13:30N 52°28' E 004°07'0 0.0
2014-Aug-15 09:28N 52°28' E 004°07'0 0.1
2014-Aug-15 08:25N 52°28' E 004°07'0 0.1
2014-Aug-15 07:33N 52°28' E 004°07'6 5.9
2014-Aug-15 06:31N 52°34' E 004°06'  
Track history (hours):
 
Tides and Currents Weather Stations Pressure Air Temp Water Temp Dewpoint Dewpoint Depression Visibility Wind Speed Wind Dir Waves Ship Positions

Wolgastern

Last reported at 2014-Aug-21 19:18 UTC. Time now 2014-Aug-21 20:02 UTC.
Position N 52°32' E 004°14'.

Length 162 m; draft 6.6 m.

Type: Tanker. MMSI: 255804950.

Date/timePositionNaut miles runAvg speedWind from/ knotsBaromVisibWave heightAir tempDewpointWater temp
2014-Aug-21 19:18N 52°32' E 004°14'0 0.0
2014-Aug-21 18:14N 52°32' E 004°14'0 0.0
2014-Aug-21 17:29N 52°32' E 004°14'0 0.0
2014-Aug-21 16:26N 52°32' E 004°14'0 0.0
2014-Aug-21 15:31N 52°32' E 004°14'0 0.0
2014-Aug-21 14:28N 52°32' E 004°14'0 0.0
2014-Aug-21 13:27N 52°32' E 004°14'0 0.0
2014-Aug-21 12:33N 52°32' E 004°14'0 0.0
2014-Aug-21 11:26N 52°32' E 004°14'0 0.0
2014-Aug-21 10:14N 52°32' E 004°14'0 0.0
2014-Aug-21 09:32N 52°32' E 004°14'0 0.0
2014-Aug-21 08:19N 52°32' E 004°14'0 0.1
2014-Aug-21 07:31N 52°32' E 004°14'0 0.0
2014-Aug-21 06:30N 52°32' E 004°14'0 0.0
2014-Aug-21 05:30N 52°32' E 004°14'0 0.0
2014-Aug-21 04:29N 52°32' E 004°14'0 0.0
2014-Aug-21 03:29N 52°32' E 004°14'0 0.0
2014-Aug-21 02:32N 52°32' E 004°14'0 0.0
2014-Aug-21 01:22N 52°32' E 004°14'0 0.0
2014-Aug-21 00:33N 52°32' E 004°14'0 0.0
2014-Aug-20 23:30N 52°32' E 004°14'0 0.0
2014-Aug-20 22:33N 52°32' E 004°14'0 0.0
2014-Aug-20 21:23N 52°32' E 004°14'0 0.0
2014-Aug-20 18:31N 52°32' E 004°14'0 0.0
2014-Aug-20 16:27N 52°32' E 004°14'0 0.0
2014-Aug-20 15:30N 52°32' E 004°14'0 0.0
2014-Aug-20 14:29N 52°32' E 004°14'0 0.1
2014-Aug-20 13:32N 52°32' E 004°14'0 0.1
2014-Aug-20 12:28N 52°32' E 004°14'0 0.0
2014-Aug-20 11:31N 52°32' E 004°14'0 0.0
2014-Aug-20 10:28N 52°32' E 004°14'0 0.0
2014-Aug-20 09:09N 52°32' E 004°14'0 0.0
2014-Aug-20 07:32N 52°32' E 004°14'0 0.0
2014-Aug-20 06:32N 52°32' E 004°14'0 0.0
2014-Aug-20 05:31N 52°32' E 004°14'0 0.0
2014-Aug-20 04:25N 52°32' E 004°14'0 0.0
2014-Aug-20 03:11N 52°32' E 004°14'0 0.0
2014-Aug-20 02:32N 52°32' E 004°14'0 0.0
2014-Aug-20 01:25N 52°32' E 004°14'0 0.0
2014-Aug-20 00:28N 52°32' E 004°14'0 0.0
2014-Aug-19 23:03N 52°32' E 004°14'0 0.0
2014-Aug-19 22:21N 52°32' E 004°14'0 0.0
2014-Aug-19 20:14N 52°32' E 004°14'0 0.0
2014-Aug-19 19:32N 52°32' E 004°14'0 0.0
2014-Aug-19 18:29N 52°32' E 004°14'0 0.0
2014-Aug-19 17:31N 52°32' E 004°14'0 0.0
2014-Aug-19 16:31N 52°32' E 004°14'0 0.0
2014-Aug-19 15:33N 52°32' E 004°14'0 0.0
2014-Aug-19 14:33N 52°32' E 004°14'0 0.0
2014-Aug-19 13:32N 52°32' E 004°14'0 0.0
2014-Aug-19 12:29N 52°32' E 004°14'0 0.0
2014-Aug-19 11:22N 52°32' E 004°14'0 0.0
2014-Aug-19 10:19N 52°32' E 004°14'0 0.0
2014-Aug-19 09:22N 52°32' E 004°14'0 0.0
2014-Aug-19 08:27N 52°32' E 004°14'0 0.0
2014-Aug-19 07:27N 52°32' E 004°14'0 0.0
2014-Aug-19 06:32N 52°32' E 004°14'0 0.0
2014-Aug-19 05:32N 52°32' E 004°14'0 0.0
2014-Aug-19 04:31N 52°32' E 004°14'0 0.0
2014-Aug-19 03:31N 52°32' E 004°14'0 0.0
2014-Aug-19 02:31N 52°32' E 004°14'0 0.0
2014-Aug-19 01:33N 52°32' E 004°14'0 0.1
2014-Aug-19 00:30N 52°32' E 004°14'0 0.0
2014-Aug-18 23:33N 52°32' E 004°14'7 7.2
2014-Aug-18 22:33N 52°29' E 004°25'7 7.1
2014-Aug-18 21:33N 52°28' E 004°37'1 0.8
2014-Aug-18 20:33N 52°28' E 004°38'1 0.8
2014-Aug-18 19:34N 52°28' E 004°39'5 4.7
2014-Aug-18 18:34N 52°26' E 004°46'3 0.3
2014-Aug-18 09:18N 52°25' E 004°50'0 0.0
2014-Aug-18 08:32N 52°25' E 004°50'0 0.0
2014-Aug-18 07:32N 52°25' E 004°50'0 0.0
2014-Aug-18 06:32N 52°25' E 004°50'0 0.0
2014-Aug-18 05:34N 52°25' E 004°50'0 0.0
2014-Aug-18 04:34N 52°25' E 004°50'0 0.0
2014-Aug-18 03:34N 52°25' E 004°50'0 0.0
2014-Aug-18 02:34N 52°25' E 004°50'0 0.0
2014-Aug-18 01:34N 52°25' E 004°50'0 0.0
2014-Aug-18 00:34N 52°25' E 004°50'0 0.0
2014-Aug-17 18:34N 52°25' E 004°50'0 0.0
2014-Aug-17 17:34N 52°25' E 004°50'0 0.0
2014-Aug-17 16:34N 52°25' E 004°50'0 0.0
2014-Aug-17 15:34N 52°25' E 004°50'0 0.0
2014-Aug-17 14:34N 52°25' E 004°50'0 0.0
2014-Aug-17 13:34N 52°25' E 004°50'0 0.0
2014-Aug-17 12:34N 52°25' E 004°50'0 0.0
2014-Aug-17 11:34N 52°25' E 004°50'0 0.0
2014-Aug-17 10:34N 52°25' E 004°50'0 0.0
2014-Aug-17 09:31N 52°25' E 004°50'0 0.0
2014-Aug-17 08:34N 52°25' E 004°50'0 0.0
2014-Aug-17 07:34N 52°25' E 004°50'0 0.0
2014-Aug-17 06:34N 52°25' E 004°50'0 0.0
2014-Aug-17 05:34N 52°25' E 004°50'0 0.0
2014-Aug-17 04:34N 52°25' E 004°50'0 0.0
2014-Aug-17 03:34N 52°25' E 004°50'0 0.0
2014-Aug-17 02:34N 52°25' E 004°50'0 0.0
2014-Aug-17 01:34N 52°25' E 004°50'0 0.0
2014-Aug-17 00:34N 52°25' E 004°50'0 0.0
2014-Aug-16 23:34N 52°25' E 004°50'0 0.0
2014-Aug-16 22:30N 52°25' E 004°50'0 0.0
2014-Aug-16 21:33N 52°25' E 004°50'0 0.0
2014-Aug-16 20:32N 52°25' E 004°50'0 0.0
2014-Aug-16 19:32N 52°25' E 004°50'0 0.0
2014-Aug-16 18:34N 52°25' E 004°50'0 0.0
2014-Aug-16 17:34N 52°25' E 004°50'0 0.0
2014-Aug-16 16:34N 52°25' E 004°50'0 0.0
2014-Aug-16 15:34N 52°25' E 004°50'0 0.0
2014-Aug-16 14:33N 52°25' E 004°50'0 0.0
2014-Aug-16 13:32N 52°25' E 004°50'0 0.0
2014-Aug-16 12:29N 52°25' E 004°50'0 0.0
2014-Aug-16 11:34N 52°25' E 004°50'0 0.0
2014-Aug-16 10:34N 52°25' E 004°50'0 0.0
2014-Aug-16 09:33N 52°25' E 004°50'0 0.0
2014-Aug-16 08:33N 52°25' E 004°50'0 0.0
2014-Aug-16 07:33N 52°25' E 004°50'0 0.0
2014-Aug-16 06:33N 52°25' E 004°50'0 0.0
2014-Aug-16 05:33N 52°25' E 004°50'0 0.0
2014-Aug-16 04:33N 52°25' E 004°50'1 0.6
2014-Aug-16 03:33N 52°25' E 004°50'8 7.6
2014-Aug-16 02:33N 52°28' E 004°38'3 2.7
2014-Aug-16 01:33N 52°28' E 004°34'8 7.5
2014-Aug-16 00:33N 52°29' E 004°21'8 7.6
2014-Aug-15 23:33N 52°29' E 004°09'1 1.0
2014-Aug-15 22:29N 52°28' E 004°07'0 0.0
2014-Aug-15 21:11N 52°28' E 004°07'0 0.0
2014-Aug-15 20:10N 52°28' E 004°07'0 0.1
2014-Aug-15 19:25N 52°28' E 004°07'0 0.1
2014-Aug-15 18:10N 52°28' E 004°07'0 0.0
2014-Aug-15 17:33N 52°28' E 004°07'0 0.2
2014-Aug-15 16:33N 52°28' E 004°07'0 0.0
2014-Aug-15 15:29N 52°28' E 004°07'0 0.0
2014-Aug-15 13:30N 52°28' E 004°07'0 0.0
2014-Aug-15 09:28N 52°28' E 004°07'0 0.1
2014-Aug-15 08:25N 52°28' E 004°07'0 0.1
2014-Aug-15 07:33N 52°28' E 004°07'6 5.9
2014-Aug-15 06:31N 52°34' E 004°06'  

Dump ship's entire track history